sensor_id;sensor_type;location;lat;lon;timestamp;temperature;humidity
15926;DHT22;8062;53.882;10.642;2023-03-01T00:01:10;-2.10;99.90
15926;DHT22;8062;53.882;10.642;2023-03-01T00:02:30;-2.00;99.90
15926;DHT22;8062;53.882;10.642;2023-03-01T00:03:50;-2.00;99.90
15926;DHT22;8062;53.882;10.642;2023-03-01T00:05:10;-2.00;99.90
15926;DHT22;8062;53.882;10.642;2023-03-01T00:06:29;-2.10;99.90
15926;DHT22;8062;53.882;10.642;2023-03-01T00:07:52;-2.10;99.90
15926;DHT22;8062;53.882;10.642;2023-03-01T00:09:13;-2.10;99.90
15926;DHT22;8062;53.882;10.642;2023-03-01T00:10:33;-2.10;99.90
15926;DHT22;8062;53.882;10.642;2023-03-01T00:11:52;-2.20;99.90
15926;DHT22;8062;53.882;10.642;2023-03-01T00:13:11;-2.20;99.90
15926;DHT22;8062;53.882;10.642;2023-03-01T00:14:31;-2.20;99.90
15926;DHT22;8062;53.882;10.642;2023-03-01T00:15:50;-2.30;99.90
15926;DHT22;8062;53.882;10.642;2023-03-01T00:17:10;-2.30;99.90
15926;DHT22;8062;53.882;10.642;2023-03-01T00:18:30;-2.30;99.90
15926;DHT22;8062;53.882;10.642;2023-03-01T00:19:49;-2.20;99.90
15926;DHT22;8062;53.882;10.642;2023-03-01T00:21:09;-2.20;99.90
15926;DHT22;8062;53.882;10.642;2023-03-01T00:22:28;-2.30;99.90
15926;DHT22;8062;53.882;10.642;2023-03-01T00:23:48;-2.30;99.90
15926;DHT22;8062;53.882;10.642;2023-03-01T00:25:08;-2.30;99.90
15926;DHT22;8062;53.882;10.642;2023-03-01T00:26:28;-2.30;99.90
15926;DHT22;8062;53.882;10.642;2023-03-01T00:27:47;-2.30;99.90
15926;DHT22;8062;53.882;10.642;2023-03-01T00:29:08;-2.30;99.90
15926;DHT22;8062;53.882;10.642;2023-03-01T00:30:27;-2.30;99.90
15926;DHT22;8062;53.882;10.642;2023-03-01T00:31:47;-2.30;99.90
15926;DHT22;8062;53.882;10.642;2023-03-01T00:33:07;-2.30;99.90
15926;DHT22;8062;53.882;10.642;2023-03-01T00:34:26;-2.40;99.90
15926;DHT22;8062;53.882;10.642;2023-03-01T00:35:46;-2.40;99.90
15926;DHT22;8062;53.882;10.642;2023-03-01T00:37:05;-2.40;99.90
15926;DHT22;8062;53.882;10.642;2023-03-01T00:38:25;-2.40;99.90
15926;DHT22;8062;53.882;10.642;2023-03-01T00:39:45;-2.40;99.90
15926;DHT22;8062;53.882;10.642;2023-03-01T00:41:06;-2.30;99.90
15926;DHT22;8062;53.882;10.642;2023-03-01T00:42:26;-2.40;99.90
15926;DHT22;8062;53.882;10.642;2023-03-01T00:43:46;-2.30;99.90
15926;DHT22;8062;53.882;10.642;2023-03-01T00:45:06;-2.30;99.90
15926;DHT22;8062;53.882;10.642;2023-03-01T00:46:27;-2.40;99.90
15926;DHT22;8062;53.882;10.642;2023-03-01T00:47:50;-2.40;99.90
15926;DHT22;8062;53.882;10.642;2023-03-01T00:49:10;-2.40;99.90
15926;DHT22;8062;53.882;10.642;2023-03-01T00:50:29;-2.40;99.90
15926;DHT22;8062;53.882;10.642;2023-03-01T00:51:49;-2.40;99.90
15926;DHT22;8062;53.882;10.642;2023-03-01T00:53:09;-2.40;99.90
15926;DHT22;8062;53.882;10.642;2023-03-01T00:54:29;-2.40;99.90
15926;DHT22;8062;53.882;10.642;2023-03-01T00:55:48;-2.40;99.90
15926;DHT22;8062;53.882;10.642;2023-03-01T00:57:08;-2.40;99.90
15926;DHT22;8062;53.882;10.642;2023-03-01T00:58:28;-2.40;99.90
15926;DHT22;8062;53.882;10.642;2023-03-01T00:59:47;-2.40;99.90
15926;DHT22;8062;53.882;10.642;2023-03-01T01:01:21;-2.40;99.90
15926;DHT22;8062;53.882;10.642;2023-03-01T01:02:42;-2.30;99.90
15926;DHT22;8062;53.882;10.642;2023-03-01T01:04:05;-2.30;99.90
15926;DHT22;8062;53.882;10.642;2023-03-01T01:05:24;-2.30;99.90
15926;DHT22;8062;53.882;10.642;2023-03-01T01:06:46;-2.30;99.90
15926;DHT22;8062;53.882;10.642;2023-03-01T01:08:05;-2.30;99.90
15926;DHT22;8062;53.882;10.642;2023-03-01T01:09:25;-2.30;99.90
15926;DHT22;8062;53.882;10.642;2023-03-01T01:10:45;-2.30;99.90
15926;DHT22;8062;53.882;10.642;2023-03-01T01:12:05;-2.30;99.90
15926;DHT22;8062;53.882;10.642;2023-03-01T01:13:25;-2.30;99.90
15926;DHT22;8062;53.882;10.642;2023-03-01T01:14:45;-2.30;99.90
15926;DHT22;8062;53.882;10.642;2023-03-01T01:16:05;-2.30;99.90
15926;DHT22;8062;53.882;10.642;2023-03-01T01:17:25;-2.30;99.90
15926;DHT22;8062;53.882;10.642;2023-03-01T01:18:45;-2.30;99.90
15926;DHT22;8062;53.882;10.642;2023-03-01T01:20:05;-2.30;99.90
15926;DHT22;8062;53.882;10.642;2023-03-01T01:21:25;-2.30;99.90
15926;DHT22;8062;53.882;10.642;2023-03-01T01:22:46;-2.30;99.90
15926;DHT22;8062;53.882;10.642;2023-03-01T01:24:06;-2.30;99.90
15926;DHT22;8062;53.882;10.642;2023-03-01T01:25:26;-2.30;99.90
15926;DHT22;8062;53.882;10.642;2023-03-01T01:26:46;-2.30;99.90
15926;DHT22;8062;53.882;10.642;2023-03-01T01:28:06;-2.30;99.90
15926;DHT22;8062;53.882;10.642;2023-03-01T01:29:26;-2.40;99.90
15926;DHT22;8062;53.882;10.642;2023-03-01T01:30:45;-2.40;99.90
15926;DHT22;8062;53.882;10.642;2023-03-01T01:32:05;-2.40;99.90
15926;DHT22;8062;53.882;10.642;2023-03-01T01:33:25;-2.50;99.90
15926;DHT22;8062;53.882;10.642;2023-03-01T01:34:45;-2.50;99.90
15926;DHT22;8062;53.882;10.642;2023-03-01T01:36:06;-2.50;99.90
15926;DHT22;8062;53.882;10.642;2023-03-01T01:37:26;-2.50;99.90
15926;DHT22;8062;53.882;10.642;2023-03-01T01:38:50;-2.60;99.90
15926;DHT22;8062;53.882;10.642;2023-03-01T01:40:10;-2.60;99.90
15926;DHT22;8062;53.882;10.642;2023-03-01T01:41:30;-2.60;99.90
15926;DHT22;8062;53.882;10.642;2023-03-01T01:42:49;-2.60;99.90
15926;DHT22;8062;53.882;10.642;2023-03-01T01:45:35;-2.60;99.90
15926;DHT22;8062;53.882;10.642;2023-03-01T01:47:06;-2.70;99.90
15926;DHT22;8062;53.882;10.642;2023-03-01T01:48:34;-2.70;99.90
15926;DHT22;8062;53.882;10.642;2023-03-01T01:49:59;-2.60;99.90
15926;DHT22;8062;53.882;10.642;2023-03-01T01:51:21;-2.60;99.90
15926;DHT22;8062;53.882;10.642;2023-03-01T01:52:43;-2.60;99.90
15926;DHT22;8062;53.882;10.642;2023-03-01T01:54:02;-2.60;99.90
15926;DHT22;8062;53.882;10.642;2023-03-01T01:55:25;-2.60;99.90
15926;DHT22;8062;53.882;10.642;2023-03-01T01:56:52;-2.60;99.90
15926;DHT22;8062;53.882;10.642;2023-03-01T01:58:16;-2.60;99.90
15926;DHT22;8062;53.882;10.642;2023-03-01T01:59:37;-2.60;99.90
15926;DHT22;8062;53.882;10.642;2023-03-01T02:00:58;-2.70;99.90
15926;DHT22;8062;53.882;10.642;2023-03-01T02:02:20;-2.70;99.90
15926;DHT22;8062;53.882;10.642;2023-03-01T02:03:43;-2.70;99.90
15926;DHT22;8062;53.882;10.642;2023-03-01T02:05:18;-2.80;99.90
15926;DHT22;8062;53.882;10.642;2023-03-01T02:06:45;-2.80;99.90
15926;DHT22;8062;53.882;10.642;2023-03-01T02:08:08;-2.80;99.90
15926;DHT22;8062;53.882;10.642;2023-03-01T02:09:30;-2.80;99.90
15926;DHT22;8062;53.882;10.642;2023-03-01T02:10:51;-2.80;99.90
15926;DHT22;8062;53.882;10.642;2023-03-01T02:12:13;-2.80;99.90
15926;DHT22;8062;53.882;10.642;2023-03-01T02:13:33;-2.80;99.90
15926;DHT22;8062;53.882;10.642;2023-03-01T02:14:53;-2.80;99.90
15926;DHT22;8062;53.882;10.642;2023-03-01T02:16:14;-2.80;99.90
15926;DHT22;8062;53.882;10.642;2023-03-01T02:17:35;-2.80;99.90
15926;DHT22;8062;53.882;10.642;2023-03-01T02:18:55;-2.80;99.90
15926;DHT22;8062;53.882;10.642;2023-03-01T02:20:23;-2.80;99.90
15926;DHT22;8062;53.882;10.642;2023-03-01T02:23:43;-2.80;99.90
15926;DHT22;8062;53.882;10.642;2023-03-01T02:26:40;-2.90;99.90
15926;DHT22;8062;53.882;10.642;2023-03-01T02:29:35;-2.90;99.90
15926;DHT22;8062;53.882;10.642;2023-03-01T02:30:55;-3.00;99.90
15926;DHT22;8062;53.882;10.642;2023-03-01T02:32:34;-3.00;99.90
15926;DHT22;8062;53.882;10.642;2023-03-01T02:33:55;-3.00;99.90
15926;DHT22;8062;53.882;10.642;2023-03-01T02:35:16;-3.10;99.90
15926;DHT22;8062;53.882;10.642;2023-03-01T02:36:39;-3.10;99.90
15926;DHT22;8062;53.882;10.642;2023-03-01T02:38:00;-3.10;99.90
15926;DHT22;8062;53.882;10.642;2023-03-01T02:39:42;-3.10;99.90
15926;DHT22;8062;53.882;10.642;2023-03-01T02:41:05;-3.20;99.90
15926;DHT22;8062;53.882;10.642;2023-03-01T02:42:33;-3.20;99.90
15926;DHT22;8062;53.882;10.642;2023-03-01T02:43:55;-3.20;99.90
15926;DHT22;8062;53.882;10.642;2023-03-01T02:45:15;-3.20;99.90
15926;DHT22;8062;53.882;10.642;2023-03-01T02:46:46;-3.20;99.90
15926;DHT22;8062;53.882;10.642;2023-03-01T02:48:06;-3.20;99.90
15926;DHT22;8062;53.882;10.642;2023-03-01T02:49:28;-3.20;99.90
15926;DHT22;8062;53.882;10.642;2023-03-01T02:51:07;-3.30;99.90
15926;DHT22;8062;53.882;10.642;2023-03-01T02:52:48;-3.30;99.90
15926;DHT22;8062;53.882;10.642;2023-03-01T02:54:29;-3.30;99.90
15926;DHT22;8062;53.882;10.642;2023-03-01T02:55:49;-3.30;99.90
15926;DHT22;8062;53.882;10.642;2023-03-01T02:57:09;-3.30;99.90
15926;DHT22;8062;53.882;10.642;2023-03-01T02:58:29;-3.30;99.90
15926;DHT22;8062;53.882;10.642;2023-03-01T02:59:50;-3.20;99.90
15926;DHT22;8062;53.882;10.642;2023-03-01T03:01:11;-3.20;99.90
15926;DHT22;8062;53.882;10.642;2023-03-01T03:02:30;-3.20;99.90
15926;DHT22;8062;53.882;10.642;2023-03-01T03:04:00;-3.20;99.90
15926;DHT22;8062;53.882;10.642;2023-03-01T03:05:22;-3.20;99.90
15926;DHT22;8062;53.882;10.642;2023-03-01T03:06:46;-3.10;99.90
15926;DHT22;8062;53.882;10.642;2023-03-01T03:08:06;-3.10;99.90
15926;DHT22;8062;53.882;10.642;2023-03-01T03:09:29;-3.00;99.90
15926;DHT22;8062;53.882;10.642;2023-03-01T03:10:49;-3.00;99.90
15926;DHT22;8062;53.882;10.642;2023-03-01T03:12:09;-3.00;99.90
15926;DHT22;8062;53.882;10.642;2023-03-01T03:13:29;-2.90;99.90
15926;DHT22;8062;53.882;10.642;2023-03-01T03:14:48;-2.90;99.90
15926;DHT22;8062;53.882;10.642;2023-03-01T03:16:08;-2.90;99.90
15926;DHT22;8062;53.882;10.642;2023-03-01T03:17:27;-2.90;99.90
15926;DHT22;8062;53.882;10.642;2023-03-01T03:18:47;-2.90;99.90
15926;DHT22;8062;53.882;10.642;2023-03-01T03:20:10;-2.90;99.90
15926;DHT22;8062;53.882;10.642;2023-03-01T03:21:32;-2.90;99.90
15926;DHT22;8062;53.882;10.642;2023-03-01T03:22:54;-2.90;99.90
15926;DHT22;8062;53.882;10.642;2023-03-01T03:24:14;-2.90;99.90
15926;DHT22;8062;53.882;10.642;2023-03-01T03:25:34;-3.00;99.90
15926;DHT22;8062;53.882;10.642;2023-03-01T03:26:57;-2.90;99.90
15926;DHT22;8062;53.882;10.642;2023-03-01T03:28:16;-3.00;99.90
15926;DHT22;8062;53.882;10.642;2023-03-01T03:29:36;-2.90;99.90
15926;DHT22;8062;53.882;10.642;2023-03-01T03:30:55;-2.90;99.90
15926;DHT22;8062;53.882;10.642;2023-03-01T03:32:15;-2.90;99.90
15926;DHT22;8062;53.882;10.642;2023-03-01T03:33:34;-3.00;99.90
15926;DHT22;8062;53.882;10.642;2023-03-01T03:34:54;-3.00;99.90
15926;DHT22;8062;53.882;10.642;2023-03-01T03:36:18;-3.00;99.90
15926;DHT22;8062;53.882;10.642;2023-03-01T03:37:40;-3.00;99.90
15926;DHT22;8062;53.882;10.642;2023-03-01T03:39:19;-3.00;99.90
15926;DHT22;8062;53.882;10.642;2023-03-01T03:40:40;-3.10;99.90
15926;DHT22;8062;53.882;10.642;2023-03-01T03:41:59;-3.20;99.90
15926;DHT22;8062;53.882;10.642;2023-03-01T03:43:21;-3.20;99.90
15926;DHT22;8062;53.882;10.642;2023-03-01T03:44:40;-3.20;99.90
15926;DHT22;8062;53.882;10.642;2023-03-01T03:46:01;-3.20;99.90
15926;DHT22;8062;53.882;10.642;2023-03-01T03:47:25;-3.30;99.90
15926;DHT22;8062;53.882;10.642;2023-03-01T03:48:45;-3.30;99.90
15926;DHT22;8062;53.882;10.642;2023-03-01T03:50:05;-3.30;99.90
15926;DHT22;8062;53.882;10.642;2023-03-01T03:51:25;-3.30;99.90
15926;DHT22;8062;53.882;10.642;2023-03-01T03:52:44;-3.30;99.90
15926;DHT22;8062;53.882;10.642;2023-03-01T03:54:04;-3.30;99.90
15926;DHT22;8062;53.882;10.642;2023-03-01T03:55:23;-3.30;99.90
15926;DHT22;8062;53.882;10.642;2023-03-01T03:56:47;-3.30;99.90
15926;DHT22;8062;53.882;10.642;2023-03-01T03:58:08;-3.30;99.90
15926;DHT22;8062;53.882;10.642;2023-03-01T03:59:28;-3.30;99.90
15926;DHT22;8062;53.882;10.642;2023-03-01T04:00:50;-3.30;99.90
15926;DHT22;8062;53.882;10.642;2023-03-01T04:02:10;-3.30;99.90
15926;DHT22;8062;53.882;10.642;2023-03-01T04:03:31;-3.30;99.90
15926;DHT22;8062;53.882;10.642;2023-03-01T04:04:51;-3.30;99.90
15926;DHT22;8062;53.882;10.642;2023-03-01T04:06:10;-3.30;99.90
15926;DHT22;8062;53.882;10.642;2023-03-01T04:07:30;-3.30;99.90
15926;DHT22;8062;53.882;10.642;2023-03-01T04:08:49;-3.30;99.90
15926;DHT22;8062;53.882;10.642;2023-03-01T04:10:13;-3.20;99.90
15926;DHT22;8062;53.882;10.642;2023-03-01T04:11:33;-3.20;99.90
15926;DHT22;8062;53.882;10.642;2023-03-01T04:12:54;-3.20;99.90
15926;DHT22;8062;53.882;10.642;2023-03-01T04:14:15;-3.10;99.90
15926;DHT22;8062;53.882;10.642;2023-03-01T04:15:35;-3.10;99.90
15926;DHT22;8062;53.882;10.642;2023-03-01T04:16:54;-3.10;99.90
15926;DHT22;8062;53.882;10.642;2023-03-01T04:18:15;-3.10;99.90
15926;DHT22;8062;53.882;10.642;2023-03-01T04:19:34;-3.20;99.90
15926;DHT22;8062;53.882;10.642;2023-03-01T04:20:55;-3.20;99.90
15926;DHT22;8062;53.882;10.642;2023-03-01T04:22:15;-3.20;99.90
15926;DHT22;8062;53.882;10.642;2023-03-01T04:23:36;-3.20;99.90
15926;DHT22;8062;53.882;10.642;2023-03-01T04:24:56;-3.20;99.90
15926;DHT22;8062;53.882;10.642;2023-03-01T04:26:15;-3.10;99.90
15926;DHT22;8062;53.882;10.642;2023-03-01T04:27:35;-3.10;99.90
15926;DHT22;8062;53.882;10.642;2023-03-01T04:28:55;-3.10;99.90
15926;DHT22;8062;53.882;10.642;2023-03-01T04:30:14;-3.10;99.90
15926;DHT22;8062;53.882;10.642;2023-03-01T04:31:34;-3.00;99.90
15926;DHT22;8062;53.882;10.642;2023-03-01T04:32:54;-3.00;99.90
15926;DHT22;8062;53.882;10.642;2023-03-01T04:34:14;-3.00;99.90
15926;DHT22;8062;53.882;10.642;2023-03-01T04:35:34;-2.90;99.90
15926;DHT22;8062;53.882;10.642;2023-03-01T04:36:54;-2.90;99.90
15926;DHT22;8062;53.882;10.642;2023-03-01T04:38:15;-2.80;99.90
15926;DHT22;8062;53.882;10.642;2023-03-01T04:39:34;-2.70;99.90
15926;DHT22;8062;53.882;10.642;2023-03-01T04:41:09;-2.70;99.90
15926;DHT22;8062;53.882;10.642;2023-03-01T04:42:29;-2.70;99.90
15926;DHT22;8062;53.882;10.642;2023-03-01T04:43:49;-2.60;99.90
15926;DHT22;8062;53.882;10.642;2023-03-01T04:45:09;-2.50;99.90
15926;DHT22;8062;53.882;10.642;2023-03-01T04:46:35;-2.50;99.90
15926;DHT22;8062;53.882;10.642;2023-03-01T04:47:55;-2.50;99.90
15926;DHT22;8062;53.882;10.642;2023-03-01T04:49:17;-2.50;99.90
15926;DHT22;8062;53.882;10.642;2023-03-01T04:50:36;-2.50;99.90
15926;DHT22;8062;53.882;10.642;2023-03-01T04:51:56;-2.50;99.90
15926;DHT22;8062;53.882;10.642;2023-03-01T04:53:17;-2.40;99.90
15926;DHT22;8062;53.882;10.642;2023-03-01T04:54:38;-2.40;99.90
15926;DHT22;8062;53.882;10.642;2023-03-01T04:55:57;-2.40;99.90
15926;DHT22;8062;53.882;10.642;2023-03-01T04:57:17;-2.30;99.90
15926;DHT22;8062;53.882;10.642;2023-03-01T04:58:37;-2.20;99.90
15926;DHT22;8062;53.882;10.642;2023-03-01T04:59:56;-2.10;99.90
15926;DHT22;8062;53.882;10.642;2023-03-01T05:01:17;-2.10;99.90
15926;DHT22;8062;53.882;10.642;2023-03-01T05:02:38;-2.00;99.90
15926;DHT22;8062;53.882;10.642;2023-03-01T05:03:57;-2.00;99.90
15926;DHT22;8062;53.882;10.642;2023-03-01T05:05:33;-1.90;99.90
15926;DHT22;8062;53.882;10.642;2023-03-01T05:06:53;-1.90;99.90
15926;DHT22;8062;53.882;10.642;2023-03-01T05:08:13;-1.90;99.90
15926;DHT22;8062;53.882;10.642;2023-03-01T05:09:36;-1.90;99.90
15926;DHT22;8062;53.882;10.642;2023-03-01T05:10:56;-1.90;99.90
15926;DHT22;8062;53.882;10.642;2023-03-01T05:12:15;-1.90;99.90
15926;DHT22;8062;53.882;10.642;2023-03-01T05:13:36;-1.90;99.90
15926;DHT22;8062;53.882;10.642;2023-03-01T05:14:56;-1.90;99.90
15926;DHT22;8062;53.882;10.642;2023-03-01T05:16:15;-1.90;99.90
15926;DHT22;8062;53.882;10.642;2023-03-01T05:17:35;-1.90;99.90
15926;DHT22;8062;53.882;10.642;2023-03-01T05:18:55;-1.80;99.90
15926;DHT22;8062;53.882;10.642;2023-03-01T05:20:14;-1.80;99.90
15926;DHT22;8062;53.882;10.642;2023-03-01T05:21:34;-1.80;99.90
15926;DHT22;8062;53.882;10.642;2023-03-01T05:23:13;-1.70;99.90
15926;DHT22;8062;53.882;10.642;2023-03-01T05:24:34;-1.70;99.90
15926;DHT22;8062;53.882;10.642;2023-03-01T05:25:58;-1.70;99.90
15926;DHT22;8062;53.882;10.642;2023-03-01T05:27:18;-1.60;99.90
15926;DHT22;8062;53.882;10.642;2023-03-01T05:28:41;-1.50;99.90
15926;DHT22;8062;53.882;10.642;2023-03-01T05:30:00;-1.50;99.90
15926;DHT22;8062;53.882;10.642;2023-03-01T05:31:32;-1.50;99.90
15926;DHT22;8062;53.882;10.642;2023-03-01T05:32:52;-1.40;99.90
15926;DHT22;8062;53.882;10.642;2023-03-01T05:34:15;-1.50;99.90
15926;DHT22;8062;53.882;10.642;2023-03-01T05:35:34;-1.50;99.90
15926;DHT22;8062;53.882;10.642;2023-03-01T05:36:54;-1.60;99.90
15926;DHT22;8062;53.882;10.642;2023-03-01T05:38:14;-1.60;99.90
15926;DHT22;8062;53.882;10.642;2023-03-01T05:39:34;-1.50;99.90
15926;DHT22;8062;53.882;10.642;2023-03-01T05:40:54;-1.50;99.90
15926;DHT22;8062;53.882;10.642;2023-03-01T05:42:14;-1.50;99.90
15926;DHT22;8062;53.882;10.642;2023-03-01T05:43:33;-1.50;99.90
15926;DHT22;8062;53.882;10.642;2023-03-01T05:44:53;-1.50;99.90
15926;DHT22;8062;53.882;10.642;2023-03-01T05:46:12;-1.50;99.90
15926;DHT22;8062;53.882;10.642;2023-03-01T05:47:34;-1.50;99.90
15926;DHT22;8062;53.882;10.642;2023-03-01T05:48:54;-1.50;99.90
15926;DHT22;8062;53.882;10.642;2023-03-01T05:50:19;-1.50;99.90
15926;DHT22;8062;53.882;10.642;2023-03-01T05:51:41;-1.50;99.90
15926;DHT22;8062;53.882;10.642;2023-03-01T05:53:03;-1.50;99.90
15926;DHT22;8062;53.882;10.642;2023-03-01T05:54:24;-1.50;99.90
15926;DHT22;8062;53.882;10.642;2023-03-01T05:55:44;-1.50;99.90
15926;DHT22;8062;53.882;10.642;2023-03-01T05:57:05;-1.50;99.90
15926;DHT22;8062;53.882;10.642;2023-03-01T05:58:24;-1.60;99.90
15926;DHT22;8062;53.882;10.642;2023-03-01T05:59:45;-1.50;99.90
15926;DHT22;8062;53.882;10.642;2023-03-01T06:01:05;-1.60;99.90
15926;DHT22;8062;53.882;10.642;2023-03-01T06:02:30;-1.60;99.90
15926;DHT22;8062;53.882;10.642;2023-03-01T06:03:49;-1.60;99.90
15926;DHT22;8062;53.882;10.642;2023-03-01T06:05:10;-1.70;99.90
15926;DHT22;8062;53.882;10.642;2023-03-01T06:06:34;-1.70;99.90
15926;DHT22;8062;53.882;10.642;2023-03-01T06:07:54;-1.60;99.90
15926;DHT22;8062;53.882;10.642;2023-03-01T06:09:13;-1.70;99.90
15926;DHT22;8062;53.882;10.642;2023-03-01T06:10:33;-1.70;99.90
15926;DHT22;8062;53.882;10.642;2023-03-01T06:11:53;-1.70;99.90
15926;DHT22;8062;53.882;10.642;2023-03-01T06:13:12;-1.80;99.90
15926;DHT22;8062;53.882;10.642;2023-03-01T06:14:32;-1.70;99.90
15926;DHT22;8062;53.882;10.642;2023-03-01T06:15:52;-1.70;99.90
15926;DHT22;8062;53.882;10.642;2023-03-01T06:17:11;-1.80;99.90
15926;DHT22;8062;53.882;10.642;2023-03-01T06:18:30;-1.80;99.90
15926;DHT22;8062;53.882;10.642;2023-03-01T06:19:50;-1.80;99.90
15926;DHT22;8062;53.882;10.642;2023-03-01T06:21:09;-1.80;99.90
15926;DHT22;8062;53.882;10.642;2023-03-01T06:22:29;-1.80;99.90
15926;DHT22;8062;53.882;10.642;2023-03-01T06:23:48;-1.80;99.90
15926;DHT22;8062;53.882;10.642;2023-03-01T06:25:09;-1.80;99.90
15926;DHT22;8062;53.882;10.642;2023-03-01T06:26:28;-1.80;99.90
15926;DHT22;8062;53.882;10.642;2023-03-01T06:27:49;-1.80;99.90
15926;DHT22;8062;53.882;10.642;2023-03-01T06:29:08;-1.80;99.90
15926;DHT22;8062;53.882;10.642;2023-03-01T06:30:28;-1.80;99.90
15926;DHT22;8062;53.882;10.642;2023-03-01T06:31:48;-1.80;99.90
15926;DHT22;8062;53.882;10.642;2023-03-01T06:33:08;-1.70;99.90
15926;DHT22;8062;53.882;10.642;2023-03-01T06:34:27;-1.70;99.90
15926;DHT22;8062;53.882;10.642;2023-03-01T06:35:47;-1.60;99.90
15926;DHT22;8062;53.882;10.642;2023-03-01T06:37:07;-1.60;99.90
15926;DHT22;8062;53.882;10.642;2023-03-01T06:38:27;-1.60;99.90
15926;DHT22;8062;53.882;10.642;2023-03-01T06:39:46;-1.50;99.90
15926;DHT22;8062;53.882;10.642;2023-03-01T06:41:06;-1.40;99.90
15926;DHT22;8062;53.882;10.642;2023-03-01T06:42:26;-1.30;99.90
15926;DHT22;8062;53.882;10.642;2023-03-01T06:43:45;-1.20;99.90
15926;DHT22;8062;53.882;10.642;2023-03-01T06:45:06;-1.20;99.90
15926;DHT22;8062;53.882;10.642;2023-03-01T06:46:26;-1.10;99.90
15926;DHT22;8062;53.882;10.642;2023-03-01T06:47:45;-1.10;99.90
15926;DHT22;8062;53.882;10.642;2023-03-01T06:49:05;-1.10;99.90
15926;DHT22;8062;53.882;10.642;2023-03-01T06:50:28;-1.00;99.90
15926;DHT22;8062;53.882;10.642;2023-03-01T06:51:48;-1.00;99.90
15926;DHT22;8062;53.882;10.642;2023-03-01T06:53:07;-0.90;99.90
15926;DHT22;8062;53.882;10.642;2023-03-01T06:54:27;-0.90;99.90
15926;DHT22;8062;53.882;10.642;2023-03-01T06:55:46;-0.90;99.90
15926;DHT22;8062;53.882;10.642;2023-03-01T06:57:06;-0.90;99.90
15926;DHT22;8062;53.882;10.642;2023-03-01T06:58:26;-0.90;99.90
15926;DHT22;8062;53.882;10.642;2023-03-01T06:59:47;-0.80;99.90
15926;DHT22;8062;53.882;10.642;2023-03-01T07:01:08;-0.90;99.90
15926;DHT22;8062;53.882;10.642;2023-03-01T07:02:28;-0.90;99.90
15926;DHT22;8062;53.882;10.642;2023-03-01T07:03:47;-0.90;99.90
15926;DHT22;8062;53.882;10.642;2023-03-01T07:05:07;-0.90;99.90
15926;DHT22;8062;53.882;10.642;2023-03-01T07:06:26;-0.80;99.90
15926;DHT22;8062;53.882;10.642;2023-03-01T07:07:46;-0.80;99.90
15926;DHT22;8062;53.882;10.642;2023-03-01T07:09:05;-0.80;99.90
15926;DHT22;8062;53.882;10.642;2023-03-01T07:10:24;-0.70;99.90
15926;DHT22;8062;53.882;10.642;2023-03-01T07:11:44;-0.70;99.90
15926;DHT22;8062;53.882;10.642;2023-03-01T07:13:04;-0.70;99.90
15926;DHT22;8062;53.882;10.642;2023-03-01T07:14:25;-0.60;99.90
15926;DHT22;8062;53.882;10.642;2023-03-01T07:15:45;-0.60;99.90
15926;DHT22;8062;53.882;10.642;2023-03-01T07:17:05;-0.70;99.90
15926;DHT22;8062;53.882;10.642;2023-03-01T07:18:25;-0.60;99.90
15926;DHT22;8062;53.882;10.642;2023-03-01T07:19:45;-0.60;99.90
15926;DHT22;8062;53.882;10.642;2023-03-01T07:21:06;-0.60;99.90
15926;DHT22;8062;53.882;10.642;2023-03-01T07:22:26;-0.60;99.90
15926;DHT22;8062;53.882;10.642;2023-03-01T07:23:47;-0.50;99.90
15926;DHT22;8062;53.882;10.642;2023-03-01T07:25:08;-0.40;99.90
15926;DHT22;8062;53.882;10.642;2023-03-01T07:26:28;-0.40;99.90
15926;DHT22;8062;53.882;10.642;2023-03-01T07:27:51;-0.30;99.90
15926;DHT22;8062;53.882;10.642;2023-03-01T07:29:11;-0.20;99.90
15926;DHT22;8062;53.882;10.642;2023-03-01T07:30:30;-0.20;99.90
15926;DHT22;8062;53.882;10.642;2023-03-01T07:31:51;-0.20;99.90
15926;DHT22;8062;53.882;10.642;2023-03-01T07:33:11;-0.20;99.90
15926;DHT22;8062;53.882;10.642;2023-03-01T07:34:31;-0.20;99.90
15926;DHT22;8062;53.882;10.642;2023-03-01T07:35:56;-0.10;99.90
15926;DHT22;8062;53.882;10.642;2023-03-01T07:37:16;-0.10;99.90
15926;DHT22;8062;53.882;10.642;2023-03-01T07:38:35;-0.10;99.90
15926;DHT22;8062;53.882;10.642;2023-03-01T07:39:55;-0.10;99.90
15926;DHT22;8062;53.882;10.642;2023-03-01T07:41:14;0.00;99.90
15926;DHT22;8062;53.882;10.642;2023-03-01T07:42:34;0.00;99.90
15926;DHT22;8062;53.882;10.642;2023-03-01T07:43:53;0.00;99.90
15926;DHT22;8062;53.882;10.642;2023-03-01T07:45:13;0.00;99.90
15926;DHT22;8062;53.882;10.642;2023-03-01T07:46:33;0.00;99.90
15926;DHT22;8062;53.882;10.642;2023-03-01T07:47:52;0.00;99.90
15926;DHT22;8062;53.882;10.642;2023-03-01T07:49:12;0.00;99.90
15926;DHT22;8062;53.882;10.642;2023-03-01T07:50:32;0.10;99.90
15926;DHT22;8062;53.882;10.642;2023-03-01T07:51:52;0.20;99.90
15926;DHT22;8062;53.882;10.642;2023-03-01T07:53:11;0.20;99.90
15926;DHT22;8062;53.882;10.642;2023-03-01T07:54:31;0.20;99.90
15926;DHT22;8062;53.882;10.642;2023-03-01T07:56:10;0.20;99.90
15926;DHT22;8062;53.882;10.642;2023-03-01T07:57:29;0.30;99.90
15926;DHT22;8062;53.882;10.642;2023-03-01T07:58:49;0.30;99.90
15926;DHT22;8062;53.882;10.642;2023-03-01T08:00:11;0.30;99.90
15926;DHT22;8062;53.882;10.642;2023-03-01T08:01:34;0.40;99.90
15926;DHT22;8062;53.882;10.642;2023-03-01T08:02:53;0.30;99.90
15926;DHT22;8062;53.882;10.642;2023-03-01T08:04:12;0.40;99.90
15926;DHT22;8062;53.882;10.642;2023-03-01T08:05:32;0.50;99.90
15926;DHT22;8062;53.882;10.642;2023-03-01T08:06:52;0.50;99.90
15926;DHT22;8062;53.882;10.642;2023-03-01T08:08:12;0.50;99.90
15926;DHT22;8062;53.882;10.642;2023-03-01T08:09:34;0.50;99.90
15926;DHT22;8062;53.882;10.642;2023-03-01T08:11:02;0.60;99.90
15926;DHT22;8062;53.882;10.642;2023-03-01T08:12:22;0.70;99.90
15926;DHT22;8062;53.882;10.642;2023-03-01T08:13:42;0.70;99.90
15926;DHT22;8062;53.882;10.642;2023-03-01T08:15:02;0.70;99.90
15926;DHT22;8062;53.882;10.642;2023-03-01T08:16:22;0.80;99.90
15926;DHT22;8062;53.882;10.642;2023-03-01T08:17:41;0.80;99.90
15926;DHT22;8062;53.882;10.642;2023-03-01T08:19:06;0.80;99.90
15926;DHT22;8062;53.882;10.642;2023-03-01T08:20:25;0.90;99.90
15926;DHT22;8062;53.882;10.642;2023-03-01T08:21:45;0.90;99.90
15926;DHT22;8062;53.882;10.642;2023-03-01T08:23:04;1.00;99.90
15926;DHT22;8062;53.882;10.642;2023-03-01T08:24:24;1.00;99.90
15926;DHT22;8062;53.882;10.642;2023-03-01T08:25:44;1.00;99.90
15926;DHT22;8062;53.882;10.642;2023-03-01T08:27:03;1.00;99.90
15926;DHT22;8062;53.882;10.642;2023-03-01T08:28:22;0.90;99.90
15926;DHT22;8062;53.882;10.642;2023-03-01T08:29:42;1.00;99.90
15926;DHT22;8062;53.882;10.642;2023-03-01T08:31:02;1.00;99.90
15926;DHT22;8062;53.882;10.642;2023-03-01T08:32:21;1.00;99.90
15926;DHT22;8062;53.882;10.642;2023-03-01T08:33:41;1.00;99.90
15926;DHT22;8062;53.882;10.642;2023-03-01T08:35:02;1.00;99.90
15926;DHT22;8062;53.882;10.642;2023-03-01T08:36:45;1.00;99.90
15926;DHT22;8062;53.882;10.642;2023-03-01T08:38:02;1.10;99.90
15926;DHT22;8062;53.882;10.642;2023-03-01T08:39:22;1.10;99.90
15926;DHT22;8062;53.882;10.642;2023-03-01T08:40:42;1.20;99.90